Time;durP1;ratioP1;P1;durP2;ratioP2;P2;SDS_P1;SDS_P2;PMS_P1;PMS_P2;Temp;Humidity;BMP_temperature;BMP_pressure;BME280_temperature;BME280_humidity;BME280_pressure;Samples;Min_cycle;Max_cycle;Signal;HPM_P1;HPM_P2
2021/03/01 00:03:47;;;;;;;9.67;8.37;;;5.80;31.50;;;;;;10444368;28;20284;-69
2021/03/01 00:08:50;;;;;;;7.33;6.63;;;5.80;31.40;;;;;;10441979;28;20233;-70
2021/03/01 00:13:53;;;;;;;10.23;8.97;;;5.70;31.30;;;;;;10441951;28;20259;-71
2021/03/01 00:18:55;;;;;;;9.60;8.37;;;5.70;31.40;;;;;;10441714;28;20653;-70
2021/03/01 00:23:58;;;;;;;10.13;8.27;;;5.70;31.40;;;;;;10442757;28;20228;-69
2021/03/01 00:29:01;;;;;;;9.53;8.53;;;5.60;31.50;;;;;;10443185;28;20754;-69
2021/03/01 00:34:03;;;;;;;7.50;6.70;;;5.60;31.50;;;;;;10438093;28;20241;-69
2021/03/01 00:39:06;;;;;;;9.90;8.17;;;5.60;31.20;;;;;;10438161;28;20321;-69
2021/03/01 00:44:09;;;;;;;7.40;6.63;;;5.50;31.40;;;;;;10441056;28;20243;-70
2021/03/01 00:49:12;;;;;;;8.73;7.53;;;5.40;31.30;;;;;;10439771;28;20255;-70
2021/03/01 00:54:14;;;;;;;8.30;7.50;;;5.40;31.40;;;;;;10446252;28;20239;-70
2021/03/01 00:59:18;;;;;;;9.13;8.23;;;5.30;31.40;;;;;;10438674;28;20225;-70
2021/03/01 01:04:20;;;;;;;7.97;6.70;;;5.30;31.60;;;;;;10439899;28;20724;-71
2021/03/01 01:09:22;;;;;;;9.17;7.90;;;5.20;31.50;;;;;;10445747;28;20229;-71
2021/03/01 01:14:26;;;;;;;9.10;8.20;;;5.20;31.70;;;;;;10440939;28;20235;-71
2021/03/01 01:19:28;;;;;;;7.43;6.60;;;5.20;31.70;;;;;;10442083;28;20232;-69
2021/03/01 01:24:30;;;;;;;7.73;6.90;;;5.10;31.70;;;;;;10442615;28;20217;-69
2021/03/01 01:29:33;;;;;;;7.60;6.87;;;5.10;31.80;;;;;;10442142;28;20224;-69
2021/03/01 01:34:36;;;;;;;9.20;8.30;;;5.00;31.70;;;;;;10436719;28;20703;-69
2021/03/01 01:39:38;;;;;;;9.60;7.80;;;5.00;31.70;;;;;;10438523;28;20700;-69
2021/03/01 01:44:41;;;;;;;9.10;7.67;;;5.00;31.70;;;;;;10442192;28;20243;-69
2021/03/01 01:49:44;;;;;;;8.70;7.40;;;4.90;31.60;;;;;;10440705;28;20225;-69
2021/03/01 01:54:46;;;;;;;9.27;8.37;;;4.80;31.50;;;;;;10434593;28;20229;-69
2021/03/01 01:59:49;;;;;;;8.53;7.73;;;4.70;31.70;;;;;;10440798;28;20266;-69
2021/03/01 02:04:54;;;;;;;7.37;6.67;;;4.60;31.80;;;;;;10437472;28;20235;-69
2021/03/01 02:10:10;;;;;;;8.83;7.93;;;4.60;31.90;;;;;;10440974;28;20588;-69
2021/03/01 02:15:22;;;;;;;7.33;6.63;;;4.50;32.40;;;;;;10443607;28;20308;-69
2021/03/01 02:20:24;;;;;;;7.77;6.90;;;4.50;32.20;;;;;;10446896;28;20229;-70
2021/03/01 02:25:30;;;;;;;10.33;7.27;;;4.50;31.90;;;;;;10447212;28;20225;-69
2021/03/01 02:30:35;;;;;;;7.23;6.50;;;4.50;32.20;;;;;;10441584;28;20233;-69
2021/03/01 02:35:43;;;;;;;6.80;6.13;;;4.50;32.00;;;;;;10448586;28;20244;-69
2021/03/01 02:40:46;;;;;;;6.73;6.03;;;4.40;32.10;;;;;;10445592;28;20232;-70
2021/03/01 02:45:49;;;;;;;6.87;6.17;;;4.40;31.90;;;;;;10443556;28;20236;-69
2021/03/01 02:50:53;;;;;;;9.40;7.53;;;4.40;31.90;;;;;;10444246;28;20626;-70
2021/03/01 02:55:58;;;;;;;6.70;6.10;;;4.30;31.80;;;;;;10444315;28;20235;-69
2021/03/01 03:01:02;;;;;;;6.53;5.93;;;4.30;31.90;;;;;;10446742;28;20717;-69
2021/03/01 03:06:05;;;;;;;7.73;6.93;;;4.30;31.90;;;;;;10445947;28;20673;-69
2021/03/01 03:11:10;;;;;;;6.43;5.77;;;4.20;31.90;;;;;;10444639;28;20231;-70
2021/03/01 03:16:13;;;;;;;6.93;6.20;;;4.20;32.00;;;;;;10445053;28;20225;-70
2021/03/01 03:21:16;;;;;;;8.73;6.70;;;4.20;32.10;;;;;;10446055;28;20225;-69
2021/03/01 03:26:19;;;;;;;7.37;6.67;;;4.20;32.10;;;;;;10444792;28;20217;-70
2021/03/01 03:31:21;;;;;;;7.60;6.53;;;4.20;32.10;;;;;;10440441;28;20320;-70
2021/03/01 03:36:26;;;;;;;6.90;6.30;;;4.10;32.00;;;;;;10447222;28;20221;-70
2021/03/01 03:41:31;;;;;;;6.90;6.20;;;4.10;32.10;;;;;;10441548;28;20692;-69
2021/03/01 03:46:34;;;;;;;7.13;6.37;;;4.00;32.20;;;;;;10441508;28;20311;-69
2021/03/01 03:51:39;;;;;;;8.67;7.20;;;4.00;32.20;;;;;;10437633;28;20235;-70
2021/03/01 03:56:45;;;;;;;7.80;7.00;;;4.00;32.00;;;;;;10441667;28;20243;-69
2021/03/01 04:01:51;;;;;;;7.77;6.97;;;3.90;32.10;;;;;;10439109;28;20232;-69
2021/03/01 04:06:55;;;;;;;7.20;6.50;;;3.80;32.30;;;;;;10438911;28;20253;-69
2021/03/01 04:12:00;;;;;;;10.53;7.60;;;3.70;32.10;;;;;;10438507;28;20566;-70
2021/03/01 04:17:06;;;;;;;9.97;6.90;;;3.80;32.50;;;;;;10444327;28;20225;-70
2021/03/01 04:22:10;;;;;;;8.23;6.77;;;3.70;32.30;;;;;;10441168;28;20748;-70
2021/03/01 04:27:13;;;;;;;6.40;5.70;;;3.60;32.00;;;;;;10445160;28;20576;-70
2021/03/01 04:32:16;;;;;;;6.67;5.97;;;3.60;32.20;;;;;;10435809;28;20243;-70
2021/03/01 04:37:19;;;;;;;6.63;5.70;;;3.50;32.30;;;;;;10442522;28;20639;-70
2021/03/01 04:42:22;;;;;;;6.63;5.93;;;3.50;32.30;;;;;;10441079;28;20233;-70
2021/03/01 04:47:40;;;;;;;7.23;6.40;;;3.60;32.60;;;;;;10435833;28;20239;-70
2021/03/01 04:52:44;;;;;;;8.53;6.70;;;3.50;32.50;;;;;;10439925;28;20233;-70
2021/03/01 04:57:47;;;;;;;6.83;6.13;;;3.50;32.60;;;;;;10439153;28;20237;-70
2021/03/01 05:02:50;;;;;;;5.80;5.20;;;3.50;32.60;;;;;;10441144;28;20299;-70
2021/03/01 05:07:55;;;;;;;6.43;5.83;;;3.60;32.60;;;;;;10442217;28;20226;-70
2021/03/01 05:12:59;;;;;;;7.03;6.30;;;3.50;32.60;;;;;;10440303;28;20244;-70
2021/03/01 05:18:02;;;;;;;6.23;5.63;;;3.40;32.60;;;;;;10443931;28;20235;-70
2021/03/01 05:23:04;;;;;;;7.37;6.63;;;3.50;32.60;;;;;;10437742;28;20296;-70
2021/03/01 05:28:07;;;;;;;8.57;6.50;;;3.40;32.40;;;;;;10440184;28;20230;-70
2021/03/01 05:33:10;;;;;;;8.83;6.67;;;3.40;32.50;;;;;;10436586;28;20244;-70
2021/03/01 05:38:12;;;;;;;6.77;6.07;;;3.40;32.50;;;;;;10441355;28;20224;-70
2021/03/01 05:43:18;;;;;;;7.33;6.47;;;3.40;32.60;;;;;;10441217;28;20229;-70
2021/03/01 05:48:22;;;;;;;6.17;5.57;;;3.30;32.70;;;;;;10441527;28;20595;-70
2021/03/01 05:53:28;;;;;;;7.27;6.13;;;3.30;32.60;;;;;;10449574;28;20232;-70
2021/03/01 05:58:33;;;;;;;7.43;6.20;;;3.30;32.70;;;;;;10444942;28;20311;-70
2021/03/01 06:03:36;;;;;;;7.07;6.00;;;3.30;32.60;;;;;;10452796;28;20223;-70
2021/03/01 06:08:39;;;;;;;7.70;6.43;;;3.20;32.50;;;;;;10446292;28;20263;-70
2021/03/01 06:13:46;;;;;;;11.60;9.67;;;3.10;32.40;;;;;;10446818;28;20225;-69
2021/03/01 06:18:48;;;;;;;11.40;9.67;;;3.00;32.50;;;;;;10447048;28;20225;-70
2021/03/01 06:23:52;;;;;;;10.10;9.07;;;3.00;32.40;;;;;;10446538;28;20229;-70
2021/03/01 06:29:05;;;;;;;12.47;10.03;;;2.80;32.70;;;;;;10442260;28;20229;-70
2021/03/01 06:34:22;;;;;;;10.00;8.83;;;2.80;33.00;;;;;;10441398;28;20217;-70
2021/03/01 06:39:26;;;;;;;10.83;8.23;;;2.80;33.40;;;;;;10446972;28;20229;-70
2021/03/01 06:44:29;;;;;;;9.57;8.10;;;2.90;33.10;;;;;;10437105;28;20221;-70
2021/03/01 06:49:36;;;;;;;7.83;7.00;;;2.90;33.30;;;;;;10444122;28;20231;-70
2021/03/01 06:54:38;;;;;;;8.87;7.43;;;2.90;33.70;;;;;;10439611;28;20233;-70
2021/03/01 06:59:41;;;;;;;7.83;7.07;;;3.00;33.40;;;;;;10442455;28;20478;-70
2021/03/01 07:04:56;;;;;;;7.87;7.07;;;3.00;33.60;;;;;;10444317;28;20727;-70
2021/03/01 07:09:58;;;;;;;8.43;6.97;;;3.10;34.40;;;;;;10446453;28;20263;-70
2021/03/01 07:15:01;;;;;;;8.43;7.53;;;3.20;33.80;;;;;;10447470;28;20225;-71
2021/03/01 07:20:06;;;;;;;7.83;7.00;;;3.20;34.00;;;;;;10443539;28;20217;-71
2021/03/01 07:25:11;;;;;;;8.20;7.17;;;3.30;34.30;;;;;;10442524;28;20229;-71
2021/03/01 07:30:15;;;;;;;7.97;7.03;;;3.30;34.60;;;;;;10440442;28;20267;-71
2021/03/01 07:35:17;;;;;;;8.87;7.63;;;3.40;34.80;;;;;;10442499;28;20233;-72
2021/03/01 07:40:20;;;;;;;9.40;8.23;;;3.50;34.70;;;;;;10443498;28;20611;-72
2021/03/01 07:45:23;;;;;;;9.13;8.27;;;3.50;34.90;;;;;;10444690;28;20231;-72
2021/03/01 07:50:36;;;;;;;11.80;8.00;;;3.60;35.50;;;;;;10443921;28;20233;-72
2021/03/01 07:55:39;;;;;;;9.17;8.17;;;3.70;36.00;;;;;;10434868;28;20741;-70
2021/03/01 08:00:43;;;;;;;9.13;8.17;;;3.80;35.80;;;;;;10430163;28;20820;-70
2021/03/01 08:05:52;;;;;;;10.00;8.73;;;4.00;36.00;;;;;;10432859;28;20251;-68
2021/03/01 08:10:54;;;;;;;9.27;8.37;;;4.20;37.30;;;;;;10431460;28;20225;-71
2021/03/01 08:16:17;;;;;;;10.00;8.70;;;4.40;36.30;;;;;;10434852;28;20231;-69
2021/03/01 08:21:21;;;;;;;10.70;8.73;;;4.60;38.40;;;;;;10396262;28;20312;-69
2021/03/01 08:26:30;;;;;;;9.77;8.80;;;4.90;37.20;;;;;;10397753;28;20226;-69
2021/03/01 08:31:39;;;;;;;9.97;9.00;;;5.20;38.40;;;;;;10393581;28;20237;-70
2021/03/01 08:36:44;;;;;;;10.23;9.13;;;5.60;37.60;;;;;;10390294;28;20308;-72
2021/03/01 08:41:47;;;;;;;11.07;8.97;;;5.90;37.50;;;;;;10394810;28;20607;-72
2021/03/01 08:46:50;;;;;;;10.00;9.03;;;6.30;37.80;;;;;;10402748;28;20234;-72
2021/03/01 08:51:54;;;;;;;10.47;9.43;;;6.60;37.90;;;;;;10397708;28;20761;-72
2021/03/01 08:57:07;;;;;;;10.03;9.03;;;7.00;37.40;;;;;;10401486;28;20233;-72
2021/03/01 09:02:10;;;;;;;9.63;8.63;;;7.40;37.90;;;;;;10391236;28;20222;-70
2021/03/01 09:07:13;;;;;;;9.67;8.77;;;7.70;36.90;;;;;;10401205;28;20245;-70
2021/03/01 09:12:19;;;;;;;10.30;9.30;;;8.10;36.40;;;;;;10399251;28;20240;-69
2021/03/01 09:17:24;;;;;;;10.63;9.53;;;8.50;35.90;;;;;;10401402;28;20237;-70
2021/03/01 09:22:26;;;;;;;10.90;9.80;;;8.90;35.80;;;;;;10394996;28;20329;-70
2021/03/01 09:27:32;;;;;;;10.37;9.27;;;9.20;35.70;;;;;;10400136;28;20233;-70
2021/03/01 09:32:35;;;;;;;10.27;9.27;;;9.60;35.10;;;;;;10396968;28;20225;-70
2021/03/01 09:37:38;;;;;;;10.13;8.60;;;9.90;34.70;;;;;;10400039;28;20239;-69
2021/03/01 09:42:40;;;;;;;9.97;8.97;;;10.20;33.70;;;;;;10397876;28;20244;-69
2021/03/01 09:47:44;;;;;;;9.67;8.63;;;10.50;33.40;;;;;;10399912;28;20229;-72
2021/03/01 09:52:47;;;;;;;8.80;8.00;;;10.80;32.50;;;;;;10400749;28;20234;-71
2021/03/01 09:57:50;;;;;;;7.77;7.07;;;11.00;31.90;;;;;;10399911;28;20226;-74
2021/03/01 10:02:58;;;;;;;8.33;7.53;;;11.20;33.50;;;;;;10389237;28;20226;-70
2021/03/01 10:08:03;;;;;;;7.23;6.63;;;11.50;30.80;;;;;;10399040;28;20596;-70
2021/03/01 10:13:07;;;;;;;7.63;6.93;;;11.60;31.30;;;;;;10397866;28;20257;-70
2021/03/01 10:18:12;;;;;;;7.77;6.93;;;11.90;30.80;;;;;;10393834;28;20273;-70
2021/03/01 10:23:29;;;;;;;7.03;6.40;;;12.00;30.40;;;;;;10398888;28;20229;-70
2021/03/01 10:28:35;;;;;;;7.20;6.50;;;12.10;29.70;;;;;;10398887;28;20230;-71
2021/03/01 10:33:56;;;;;;;6.67;6.07;;;12.20;30.20;;;;;;10400934;28;20236;-70
2021/03/01 10:39:06;;;;;;;7.00;6.33;;;12.40;30.00;;;;;;10403727;28;20336;-70
2021/03/01 10:44:09;;;;;;;7.70;6.90;;;12.50;30.00;;;;;;10399745;28;20232;-71
2021/03/01 10:49:21;;;;;;;6.83;6.20;;;12.70;30.10;;;;;;10414627;28;20614;-70
2021/03/01 10:54:25;;;;;;;6.87;6.17;;;12.80;30.10;;;;;;10398645;28;20252;-70
2021/03/01 10:59:27;;;;;;;6.83;6.23;;;13.00;30.40;;;;;;10402132;28;20233;-70
2021/03/01 11:04:30;;;;;;;7.07;6.37;;;13.20;30.50;;;;;;10391965;28;20225;-70
2021/03/01 11:09:32;;;;;;;6.33;5.73;;;13.40;30.00;;;;;;10402484;28;20606;-71
2021/03/01 11:14:35;;;;;;;5.77;5.27;;;13.60;30.00;;;;;;10396569;28;20865;-71
2021/03/01 11:19:43;;;;;;;6.47;5.87;;;13.70;30.00;;;;;;10394019;28;20882;-70
2021/03/01 11:24:45;;;;;;;6.27;5.53;;;13.80;29.80;;;;;;10396048;28;20230;-70
2021/03/01 11:29:47;;;;;;;5.60;5.10;;;14.00;29.60;;;;;;10395316;28;20240;-69
2021/03/01 11:34:50;;;;;;;5.67;4.97;;;14.10;29.70;;;;;;10393212;28;20236;-69
2021/03/01 11:39:52;;;;;;;4.87;4.47;;;14.30;29.30;;;;;;10388819;28;20241;-69
2021/03/01 11:44:54;;;;;;;6.30;4.93;;;14.40;29.50;;;;;;10394996;28;20226;-70
2021/03/01 11:49:57;;;;;;;5.63;5.13;;;14.50;29.40;;;;;;10395102;28;20237;-70
2021/03/01 11:55:00;;;;;;;5.63;5.03;;;14.70;29.20;;;;;;10396354;28;20244;-70
2021/03/01 12:00:02;;;;;;;5.03;4.53;;;14.70;29.20;;;;;;10394349;28;20320;-70
2021/03/01 12:05:07;;;;;;;4.70;4.30;;;14.80;29.10;;;;;;10394501;28;20602;-70
2021/03/01 12:10:10;;;;;;;5.10;4.70;;;14.90;28.50;;;;;;10397559;28;20245;-70
2021/03/01 12:15:12;;;;;;;5.00;4.50;;;14.90;28.70;;;;;;10402996;28;20230;-70
2021/03/01 12:20:15;;;;;;;4.63;4.20;;;14.90;28.70;;;;;;10401717;28;20226;-70
2021/03/01 12:25:19;;;;;;;4.00;3.70;;;15.00;28.50;;;;;;10403077;28;20221;-70
2021/03/01 12:30:22;;;;;;;4.77;4.20;;;15.10;28.30;;;;;;10402657;28;20238;-70
2021/03/01 12:35:45;;;;;;;4.47;4.07;;;15.10;28.50;;;;;;10400712;28;20712;-70
2021/03/01 12:40:47;;;;;;;3.87;3.57;;;15.20;28.70;;;;;;10399040;28;20244;-70
2021/03/01 12:45:49;;;;;;;4.30;3.90;;;15.30;28.50;;;;;;10404516;28;20321;-70
2021/03/01 12:50:53;;;;;;;3.73;3.43;;;15.30;28.40;;;;;;10397328;28;20610;-70
2021/03/01 12:55:56;;;;;;;3.80;3.50;;;15.30;28.10;;;;;;10400460;28;20225;-70
2021/03/01 13:00:58;;;;;;;3.57;3.27;;;15.30;28.10;;;;;;10398815;28;20229;-70
2021/03/01 13:06:19;;;;;;;3.47;2.97;;;15.30;28.10;;;;;;10399273;28;20236;-70
2021/03/01 13:11:22;;;;;;;3.63;3.33;;;15.40;28.10;;;;;;10405203;28;20233;-70
2021/03/01 13:16:24;;;;;;;3.90;3.50;;;15.40;28.00;;;;;;10400576;28;20853;-70
2021/03/01 13:21:27;;;;;;;3.77;3.47;;;15.50;27.90;;;;;;10398202;28;20230;-70
2021/03/01 13:26:30;;;;;;;3.43;3.13;;;15.50;27.50;;;;;;10398978;28;20222;-70
2021/03/01 13:31:32;;;;;;;3.73;3.40;;;15.60;27.80;;;;;;10399548;28;20245;-69
2021/03/01 13:36:35;;;;;;;4.87;4.47;;;15.70;27.60;;;;;;10400503;28;20233;-69
2021/03/01 13:41:37;;;;;;;4.20;3.80;;;15.70;27.30;;;;;;10399640;28;20222;-69
2021/03/01 13:46:40;;;;;;;3.80;3.50;;;15.70;27.40;;;;;;10397424;28;20729;-69
2021/03/01 13:51:44;;;;;;;3.70;3.40;;;15.80;27.50;;;;;;10392142;28;20225;-69
2021/03/01 13:56:46;;;;;;;3.40;3.10;;;15.90;27.40;;;;;;10395727;28;20225;-69
2021/03/01 14:01:48;;;;;;;3.70;3.13;;;15.90;27.30;;;;;;10391989;28;20240;-69
2021/03/01 14:06:52;;;;;;;3.77;3.47;;;15.90;27.50;;;;;;10396884;28;20291;-69
2021/03/01 14:11:55;;;;;;;4.00;3.33;;;16.00;27.10;;;;;;10405608;28;20257;-69
2021/03/01 14:16:58;;;;;;;4.50;4.10;;;16.00;27.50;;;;;;10405878;28;20607;-69
2021/03/01 14:22:01;;;;;;;3.77;3.47;;;16.10;27.40;;;;;;10407127;28;20583;-69
2021/03/01 14:27:04;;;;;;;3.00;2.80;;;16.10;27.20;;;;;;10404247;28;20241;-69
2021/03/01 14:32:07;;;;;;;3.27;2.97;;;16.20;27.10;;;;;;10406630;28;20237;-69
2021/03/01 14:37:10;;;;;;;2.80;2.60;;;16.20;26.70;;;;;;10400049;28;20221;-69
2021/03/01 14:42:12;;;;;;;3.33;3.00;;;16.30;26.50;;;;;;10402716;28;20313;-69
2021/03/01 14:47:15;;;;;;;2.93;2.73;;;16.30;26.50;;;;;;10398928;28;20241;-69
2021/03/01 14:52:18;;;;;;;2.60;2.40;;;16.30;26.30;;;;;;10393627;28;20240;-69
2021/03/01 14:57:20;;;;;;;2.53;2.33;;;16.30;26.50;;;;;;10399118;28;20230;-69
2021/03/01 15:02:23;;;;;;;2.90;2.60;;;16.40;26.40;;;;;;10387339;28;20228;-69
2021/03/01 15:07:26;;;;;;;2.50;2.30;;;16.40;25.90;;;;;;10399033;28;20230;-69
2021/03/01 15:12:28;;;;;;;2.67;2.37;;;16.40;25.80;;;;;;10394906;28;20229;-69
2021/03/01 15:17:31;;;;;;;2.43;2.23;;;16.40;25.90;;;;;;10397872;28;20230;-69
2021/03/01 15:22:34;;;;;;;2.37;2.17;;;16.40;26.00;;;;;;10393791;28;20237;-69
2021/03/01 15:27:37;;;;;;;2.53;2.33;;;16.40;25.80;;;;;;10391687;28;20253;-69
2021/03/01 15:32:40;;;;;;;2.60;2.40;;;16.40;25.90;;;;;;10394019;28;20911;-69
2021/03/01 15:37:44;;;;;;;3.17;2.40;;;16.40;25.80;;;;;;10394246;28;20288;-69
2021/03/01 15:42:46;;;;;;;4.70;2.40;;;16.40;25.40;;;;;;10395350;28;20604;-69
2021/03/01 15:47:48;;;;;;;2.77;2.57;;;16.40;25.70;;;;;;10394715;28;20230;-69
2021/03/01 15:52:51;;;;;;;2.87;2.67;;;16.30;25.40;;;;;;10384805;28;20313;-68
2021/03/01 15:57:54;;;;;;;3.27;2.97;;;16.30;25.50;;;;;;10397469;28;20229;-69
2021/03/01 16:02:56;;;;;;;3.40;2.90;;;16.30;25.60;;;;;;10386472;28;20344;-69
2021/03/01 16:07:59;;;;;;;3.33;3.03;;;16.30;26.40;;;;;;10392541;28;20240;-69
2021/03/01 16:13:01;;;;;;;3.50;3.20;;;16.20;25.40;;;;;;10396391;28;20233;-69
2021/03/01 16:18:04;;;;;;;3.53;3.23;;;16.20;25.70;;;;;;10392393;28;20763;-69
2021/03/01 16:23:07;;;;;;;3.30;3.00;;;16.10;25.70;;;;;;10379382;28;20262;-69
2021/03/01 16:28:10;;;;;;;3.10;2.90;;;16.10;25.50;;;;;;10383360;28;20587;-69
2021/03/01 16:33:12;;;;;;;4.70;4.30;;;16.10;25.70;;;;;;10391321;28;20237;-69
2021/03/01 16:38:16;;;;;;;4.77;4.33;;;16.10;25.80;;;;;;10387867;28;20291;-69
2021/03/01 16:43:23;;;;;;;4.53;4.13;;;16.00;25.60;;;;;;10392909;28;20233;-69
2021/03/01 16:48:27;;;;;;;4.33;3.53;;;16.00;25.40;;;;;;10389937;28;20229;-69
2021/03/01 16:53:36;;;;;;;3.53;3.23;;;15.90;25.60;;;;;;10396135;28;20252;-69
2021/03/01 16:58:38;;;;;;;3.90;3.50;;;15.90;25.60;;;;;;10398569;28;20233;-69
2021/03/01 17:03:42;;;;;;;3.33;3.07;;;15.80;25.80;;;;;;10389964;28;20231;-69
2021/03/01 17:08:48;;;;;;;4.20;2.93;;;15.70;25.80;;;;;;10403187;28;20225;-69
2021/03/01 17:13:52;;;;;;;3.57;3.27;;;15.60;25.80;;;;;;10398078;28;20238;-69
2021/03/01 17:18:55;;;;;;;4.20;3.50;;;15.50;25.80;;;;;;10393785;28;20237;-69
2021/03/01 17:24:02;;;;;;;6.57;3.67;;;15.40;25.90;;;;;;10400892;28;20230;-69
2021/03/01 17:29:04;;;;;;;3.47;3.17;;;15.30;25.80;;;;;;10399010;28;20238;-70
2021/03/01 17:34:10;;;;;;;3.57;3.27;;;15.10;26.00;;;;;;10396064;28;20222;-70
2021/03/01 17:39:14;;;;;;;5.53;3.87;;;15.00;26.10;;;;;;10397675;28;20658;-70
2021/03/01 17:44:16;;;;;;;6.07;4.40;;;14.90;26.10;;;;;;10397831;28;20233;-69
2021/03/01 17:49:26;;;;;;;5.63;4.40;;;14.70;26.20;;;;;;10409086;28;20225;-69
2021/03/01 17:54:39;;;;;;;5.30;3.70;;;14.60;26.10;;;;;;10405402;28;20249;-69
2021/03/01 17:59:52;;;;;;;4.70;3.30;;;14.40;26.20;;;;;;10401158;28;20233;-69
2021/03/01 18:04:56;;;;;;;4.37;3.60;;;14.20;26.10;;;;;;10396613;28;20294;-69
2021/03/01 18:10:02;;;;;;;6.97;4.57;;;14.10;26.30;;;;;;10404457;28;20257;-69
2021/03/01 18:15:06;;;;;;;4.93;3.93;;;14.00;26.30;;;;;;10400080;28;20607;-70
2021/03/01 18:20:11;;;;;;;9.23;5.10;;;13.80;26.40;;;;;;10400313;28;20225;-70
2021/03/01 18:25:17;;;;;;;9.23;7.20;;;13.70;26.50;;;;;;10409327;28;20225;-70
2021/03/01 18:30:20;;;;;;;12.67;9.63;;;13.50;26.40;;;;;;10400757;28;20566;-69
2021/03/01 18:35:25;;;;;;;14.30;10.77;;;13.40;26.50;;;;;;10412053;28;20230;-69
2021/03/01 18:40:35;;;;;;;12.93;9.80;;;13.20;26.50;;;;;;10401716;28;20238;-70
2021/03/01 18:45:40;;;;;;;11.73;9.87;;;13.00;26.70;;;;;;10405872;28;20233;-69
2021/03/01 18:50:42;;;;;;;14.60;10.73;;;12.90;27.20;;;;;;10407581;28;20276;-70
2021/03/01 18:55:46;;;;;;;24.73;17.50;;;12.70;26.70;;;;;;10401001;28;20226;-70
2021/03/01 19:00:49;;;;;;;25.90;18.73;;;12.60;26.80;;;;;;10395685;28;20237;-69
2021/03/01 19:05:53;;;;;;;20.00;14.50;;;12.40;26.70;;;;;;10406060;28;20228;-69
2021/03/01 19:10:57;;;;;;;20.60;15.37;;;12.20;26.80;;;;;;10404986;28;20275;-69
2021/03/01 19:15:59;;;;;;;16.70;13.13;;;12.00;27.00;;;;;;10400499;28;20632;-73
2021/03/01 19:21:02;;;;;;;12.87;10.17;;;11.90;27.10;;;;;;10397116;28;20213;-72
2021/03/01 19:26:06;;;;;;;11.87;8.43;;;11.70;27.10;;;;;;10394201;28;20626;-72
2021/03/01 19:31:08;;;;;;;8.97;7.80;;;11.60;27.20;;;;;;10394189;28;20261;-72
2021/03/01 19:36:10;;;;;;;10.37;7.93;;;11.40;27.10;;;;;;10389790;28;20226;-72
2021/03/01 19:41:13;;;;;;;10.17;8.17;;;11.30;27.20;;;;;;10393569;28;20229;-72
2021/03/01 19:46:16;;;;;;;7.63;6.30;;;11.20;27.50;;;;;;10389146;28;20233;-72
2021/03/01 19:51:18;;;;;;;6.43;5.67;;;11.10;27.40;;;;;;10397803;28;20225;-72
2021/03/01 19:56:21;;;;;;;6.87;5.30;;;11.10;27.40;;;;;;10395380;28;20537;-72
2021/03/01 20:01:24;;;;;;;6.80;6.00;;;11.00;27.40;;;;;;10392307;28;20229;-72
2021/03/01 20:06:26;;;;;;;13.50;9.30;;;10.90;27.40;;;;;;10392427;28;20313;-72
2021/03/01 20:11:29;;;;;;;13.27;10.77;;;10.90;27.50;;;;;;10392026;28;20234;-72
2021/03/01 20:16:31;;;;;;;13.33;9.73;;;10.80;27.50;;;;;;10391827;28;20225;-73
2021/03/01 20:21:35;;;;;;;12.37;9.37;;;10.70;27.50;;;;;;10391090;28;20271;-73
2021/03/01 20:26:38;;;;;;;12.93;9.67;;;10.60;27.60;;;;;;10381923;28;20214;-73
2021/03/01 20:31:41;;;;;;;9.67;8.30;;;10.60;27.60;;;;;;10381331;28;20311;-73
2021/03/01 20:36:44;;;;;;;14.40;9.97;;;10.40;27.40;;;;;;10383980;28;20329;-73
2021/03/01 20:41:47;;;;;;;10.93;8.53;;;10.30;27.60;;;;;;10384012;28;20230;-72
2021/03/01 20:46:49;;;;;;;11.53;9.43;;;10.20;27.80;;;;;;10383733;28;20225;-73
2021/03/01 20:51:52;;;;;;;10.50;9.33;;;10.20;27.80;;;;;;10387821;28;20625;-73
2021/03/01 20:56:55;;;;;;;9.87;8.77;;;10.10;27.70;;;;;;10377861;28;20237;-73
2021/03/01 21:01:57;;;;;;;9.50;7.33;;;10.00;27.80;;;;;;10390121;28;20410;-73
2021/03/01 21:07:00;;;;;;;10.53;9.53;;;9.90;28.50;;;;;;10387091;28;20221;-73
2021/03/01 21:12:04;;;;;;;10.63;9.40;;;9.80;28.70;;;;;;10391672;28;20662;-73
2021/03/01 21:17:10;;;;;;;10.17;8.67;;;9.70;28.90;;;;;;10391185;28;20685;-73
2021/03/01 21:22:19;;;;;;;12.30;11.10;;;9.60;28.80;;;;;;10389039;28;20568;-72
2021/03/01 21:27:27;;;;;;;12.23;10.83;;;9.50;28.70;;;;;;10388244;28;20636;-72
2021/03/01 21:32:29;;;;;;;12.20;10.90;;;9.50;28.70;;;;;;10389513;28;20264;-73
2021/03/01 21:37:33;;;;;;;9.43;8.10;;;9.30;28.60;;;;;;10389368;28;20228;-73
2021/03/01 21:42:37;;;;;;;10.13;9.13;;;9.20;28.50;;;;;;10387241;28;20260;-73
2021/03/01 21:47:40;;;;;;;9.30;8.30;;;9.10;28.50;;;;;;10393062;28;20750;-73
2021/03/01 21:52:49;;;;;;;9.13;8.20;;;9.10;28.50;;;;;;10390117;28;20744;-73
2021/03/01 21:57:53;;;;;;;9.07;8.17;;;9.00;29.00;;;;;;10390280;28;20316;-73
2021/03/01 22:02:59;;;;;;;9.50;8.60;;;9.00;28.90;;;;;;10387903;28;20320;-73
2021/03/01 22:08:02;;;;;;;8.43;7.53;;;8.90;29.00;;;;;;10388176;28;20623;-73
2021/03/01 22:13:06;;;;;;;7.33;6.67;;;8.90;28.70;;;;;;10393405;28;20241;-72
2021/03/01 22:18:09;;;;;;;8.77;7.87;;;8.80;28.80;;;;;;10384447;28;20233;-73
2021/03/01 22:23:13;;;;;;;8.00;7.27;;;8.60;28.80;;;;;;10390009;28;20233;-73
2021/03/01 22:28:18;;;;;;;9.00;7.87;;;8.60;28.90;;;;;;10391530;28;20722;-73
2021/03/01 22:33:23;;;;;;;8.90;8.00;;;8.50;29.10;;;;;;10395136;28;20793;-74
2021/03/01 22:38:28;;;;;;;7.83;6.50;;;8.40;29.30;;;;;;10396568;28;20225;-74
2021/03/01 22:43:46;;;;;;;8.00;7.20;;;8.30;29.10;;;;;;10396194;28;20227;-74
2021/03/01 22:48:49;;;;;;;7.67;6.13;;;8.20;29.40;;;;;;10402557;28;20236;-74
2021/03/01 22:53:53;;;;;;;8.60;7.80;;;8.20;29.30;;;;;;10396939;28;20233;-74
2021/03/01 22:58:56;;;;;;;8.03;6.87;;;8.10;29.30;;;;;;10400361;28;20234;-74
2021/03/01 23:03:59;;;;;;;7.73;7.03;;;8.10;29.50;;;;;;10403511;28;20225;-74
2021/03/01 23:09:04;;;;;;;7.87;7.07;;;8.10;30.00;;;;;;10399984;28;20241;-74
2021/03/01 23:14:17;;;;;;;7.40;6.23;;;7.90;29.30;;;;;;10396881;28;20234;-74
2021/03/01 23:19:20;;;;;;;6.80;5.23;;;7.80;29.40;;;;;;10404055;28;20246;-74
2021/03/01 23:24:33;;;;;;;9.57;6.77;;;7.70;29.20;;;;;;10400389;28;20713;-74
2021/03/01 23:29:37;;;;;;;6.80;6.13;;;7.60;29.40;;;;;;10399952;28;20233;-73
2021/03/01 23:34:41;;;;;;;8.23;6.70;;;7.50;29.70;;;;;;10398571;28;20250;-74
2021/03/01 23:39:44;;;;;;;7.53;6.47;;;7.30;29.60;;;;;;10397934;28;20645;-73
2021/03/01 23:44:48;;;;;;;7.30;6.60;;;7.20;29.70;;;;;;10401342;28;20312;-73
2021/03/01 23:49:52;;;;;;;7.00;6.27;;;7.20;30.00;;;;;;10396724;28;20234;-73
2021/03/01 23:54:54;;;;;;;7.17;6.43;;;7.10;30.00;;;;;;10395245;28;20320;-73
2021/03/01 23:59:57;;;;;;;7.70;6.90;;;7.10;30.00;;;;;;10399506;28;20271;-74
